首页
METAR-TAF:

METAR-TAF

机场 :

Tonopah Airport

托诺帕, 内华达州, 美国

纬度: 38-03-37N, 经度: 117-05-14W, 海拔: 1654米

当前天气观测

该预报发布于29分钟前的14:56 UTC
风速8节,风向
温度 26°C
湿度 18%
气压 1022 hPa
能見度: 16.1公里
天空无云

METAR: KTPH 241456Z AUTO 01008KT 10SM CLR 26/00 A3017 RMK AO2 SLP119 T02560000 51012

时间: 08:25 (15:25 UTC)

预报

该预报发布于4小时和5分钟前的11:20 UTC
预报有效从24日的 12点(UTC)到 25日的 12点(UTC)
风速8节,风向
能見度: 10公里
天空无云
从 24日的 2100点(UTC)
风速8节,风向西,有时为18节阵风
能見度: 10公里
少量云层高于12000英尺
从 25日的 0100点(UTC)
风速8节,风向西北
能見度: 10公里
多云层高于12000英尺

TAF: KTPH 241120Z 2412/2512 35008KT P6SM SKC FM242100 26008G18KT P6SM FEW120 FM250100 31008KT P6SM BKN120

超过4000个机场的气象观测和天气预报(METAR&TAF报告)。

可查询的气象台以黄色和红色小点在地图上表示。

将鼠标移到小点上方,可查看气象台名称。

然后点击查看天气观测和预报。

如需切换地图:点击带黑十字的绿色按钮放大地图;点击带横线的绿色按钮缩小地图;或者点击绿色箭头查看邻近地区的地图。


METAR-TAF: